^^
Station Historical Data
Daily Summary for November 10, 2017 Units:  Both    English   Metric
« Previous Day
Next Day »
Daily Weekly Monthly Yearly Custom
  High: Low: Average:
Temperature: 50.4 °F /  10.2 °C 23.2 °F /  -4.9 °C 34 °F /  1.1 °C
Dew Point: 46.6 °F /  8.1 °C 7.5 °F /  -13.6 °C 20.1 °F /  -6.6 °C
Humidity: 93% 39% 58%
Wind Speed: 9.0mph /  14.5km/h - 3.7mph /  6km/h
Wind Gust: 23.0mph /  37km/h - -
Wind- - SSW
Pressure: 30.52 in /  1033.4 hPa 29.94 in /  1013.8 hPa -
Precipitation: 0.00 in /  0 mm    
Historical Graphs
 
 
Tabular Data for November 10, 2017
Time Temperature Dew Point Pressure Wind Wind Speed Wind Gust Humidity Rainfall Rate (Hourly) Conditions
00:00 50.4 °F /  10.2 °C 46.1 °F /  7.8 °C 29.96in /  1014.4hPa SW 6.0mph /  9.7km/h 14.0mph /  22.5km/h 85% 0.00in /  0mm RA
00:10 50.1 °F /  10.1 °C 46.4 °F /  8 °C 29.96in /  1014.4hPa WSW 5.0mph /  8km/h 12.0mph /  19.3km/h 87% 0.00in /  0mm BKN
00:20 49.7 °F /  9.8 °C 46.6 °F /  8.1 °C 29.96in /  1014.4hPa SW 2.0mph /  3.2km/h 10.0mph /  16.1km/h 89% 0.00in /  0mm BKN
00:30 49.0 °F /  9.4 °C 46.5 °F /  8.1 °C 29.96in /  1014.4hPa SW 1.0mph /  1.6km/h 9.0mph /  14.5km/h 91% 0.00in /  0mm BKN
00:40 48.6 °F /  9.2 °C 46.1 °F /  7.8 °C 29.96in /  1014.4hPa SW 3.0mph /  4.8km/h 12.0mph /  19.3km/h 91% 0.00in /  0mm BKN
00:50 48.4 °F /  9.1 °C 46.2 °F /  7.9 °C 29.95in /  1014.1hPa SW 6.0mph /  9.7km/h 11.0mph /  17.7km/h 92% 0.00in /  0mm BKN
00:59 48.2 °F /  9 °C 45.9 °F /  7.7 °C 29.95in /  1014.1hPa SW 2.0mph /  3.2km/h 10.0mph /  16.1km/h 92% 0.00in /  0mm BKN
01:10 47.9 °F /  8.8 °C 45.7 °F /  7.6 °C 29.95in /  1014.1hPa SW 2.0mph /  3.2km/h 10.0mph /  16.1km/h 92% 0.00in /  0mm BKN
01:19 47.6 °F /  8.7 °C 45.4 °F /  7.4 °C 29.95in /  1014.1hPa SW 3.0mph /  4.8km/h 12.0mph /  19.3km/h 92% 0.00in /  0mm BKN
01:30 47.5 °F /  8.6 °C 45.3 °F /  7.4 °C 29.94in /  1013.8hPa SW 2.0mph /  3.2km/h 9.0mph /  14.5km/h 92% 0.00in /  0mm BKN
01:40 47.2 °F /  8.4 °C 45.2 °F /  7.3 °C 29.94in /  1013.8hPa SSW 5.0mph /  8km/h 8.0mph /  12.9km/h 93% 0.00in /  0mm BKN
01:50 46.9 °F /  8.3 °C 45.0 °F /  7.2 °C 29.94in /  1013.8hPa SW 2.0mph /  3.2km/h 10.0mph /  16.1km/h 93% 0.00in /  0mm BKN
02:00 46.7 °F /  8.2 °C 44.5 °F /  6.9 °C 29.94in /  1013.8hPa SW 3.0mph /  4.8km/h 12.0mph /  19.3km/h 92% 0.00in /  0mm BKN
02:10 46.6 °F /  8.1 °C 44.4 °F /  6.9 °C 29.94in /  1013.8hPa SSW 3.0mph /  4.8km/h 12.0mph /  19.3km/h 92% 0.00in /  0mm CLR
02:20 46.3 °F /  7.9 °C 44.1 °F /  6.7 °C 29.94in /  1013.8hPa SSW 3.0mph /  4.8km/h 12.0mph /  19.3km/h 92% 0.00in /  0mm CLR
02:30 46.0 °F /  7.8 °C 43.8 °F /  6.6 °C 29.94in /  1013.8hPa SW 3.0mph /  4.8km/h 7.0mph /  11.3km/h 92% 0.00in /  0mm CLR
02:40 45.9 °F /  7.7 °C 43.7 °F /  6.5 °C 29.94in /  1013.8hPa SSW 3.0mph /  4.8km/h 8.0mph /  12.9km/h 92% 0.00in /  0mm CLR
02:50 45.6 °F /  7.6 °C 43.4 °F /  6.3 °C 29.94in /  1013.8hPa SW 3.0mph /  4.8km/h 6.0mph /  9.7km/h 92% 0.00in /  0mm CLR
03:00 45.4 °F /  7.4 °C 42.9 °F /  6.1 °C 29.94in /  1013.8hPa SW 2.0mph /  3.2km/h 13.0mph /  20.9km/h 91% 0.00in /  0mm CLR
03:10 45.1 °F /  7.3 °C 42.6 °F /  5.9 °C 29.94in /  1013.8hPa SW 2.0mph /  3.2km/h 12.0mph /  19.3km/h 91% 0.00in /  0mm CLR
03:20 44.9 °F /  7.2 °C 42.4 °F /  5.8 °C 29.94in /  1013.8hPa SW 2.0mph /  3.2km/h 10.0mph /  16.1km/h 91% 0.00in /  0mm CLR
03:30 44.7 °F /  7.1 °C 42.5 °F /  5.8 °C 29.95in /  1014.1hPa SW 2.0mph /  3.2km/h 6.0mph /  9.7km/h 92% 0.00in /  0mm CLR
03:50 44.7 °F /  7.1 °C 42.5 °F /  5.8 °C 29.96in /  1014.4hPa SW 3.0mph /  4.8km/h 9.0mph /  14.5km/h 92% 0.00in /  0mm CLR
03:59 44.2 °F /  6.8 °C 39.0 °F /  3.9 °C 29.98in /  1015.1hPa West 6.0mph /  9.7km/h 16.0mph /  25.7km/h 82% 0.00in /  0mm CLR
04:10 43.7 °F /  6.5 °C 36.6 °F /  2.6 °C 29.98in /  1015.1hPa SSE 2.0mph /  3.2km/h 13.0mph /  20.9km/h 76% 0.00in /  0mm BKN
04:20 43.4 °F /  6.3 °C 35.7 °F /  2.1 °C 29.99in /  1015.5hPa WSW 5.0mph /  8km/h 12.0mph /  19.3km/h 74% 0.00in /  0mm BKN
04:30 43.1 °F /  6.2 °C 35.4 °F /  1.9 °C 30.00in /  1015.8hPa ESE 1.0mph /  1.6km/h 10.0mph /  16.1km/h 74% 0.00in /  0mm BKN
04:39 42.8 °F /  6 °C 35.1 °F /  1.7 °C 30.00in /  1015.8hPa NNW 7.0mph /  11.3km/h 17.0mph /  27.4km/h 74% 0.00in /  0mm BKN
04:49 42.3 °F /  5.7 °C 34.6 °F /  1.4 °C 30.01in /  1016.1hPa NNW 3.0mph /  4.8km/h 9.0mph /  14.5km/h 74% 0.00in /  0mm BKN
04:59 42.0 °F /  5.6 °C 34.4 °F /  1.3 °C 30.01in /  1016.1hPa NE 6.0mph /  9.7km/h 13.0mph /  20.9km/h 74% 0.00in /  0mm BKN
05:10 41.7 °F /  5.4 °C 33.3 °F /  0.7 °C 30.02in /  1016.5hPa NNW 5.0mph /  8km/h 18.0mph /  29km/h 72% 0.00in /  0mm BKN
05:20 41.3 °F /  5.2 °C 32.6 °F /  0.3 °C 30.02in /  1016.5hPa NE 7.0mph /  11.3km/h 14.0mph /  22.5km/h 71% 0.00in /  0mm BKN
05:30 40.9 °F /  4.9 °C 31.9 °F /  -0.1 °C 30.03in /  1016.8hPa North 6.0mph /  9.7km/h 16.0mph /  25.7km/h 70% 0.00in /  0mm BKN
05:40 40.5 °F /  4.7 °C 31.5 °F /  -0.3 °C 30.04in /  1017.2hPa North 2.0mph /  3.2km/h 20.0mph /  32.2km/h 70% 0.00in /  0mm BKN
05:50 40.1 °F /  4.5 °C 30.4 °F /  -0.9 °C 30.03in /  1016.8hPa NW 3.0mph /  4.8km/h 13.0mph /  20.9km/h 68% 0.00in /  0mm BKN
06:00 39.8 °F /  4.3 °C 30.5 °F /  -0.8 °C 30.04in /  1017.2hPa North 5.0mph /  8km/h 10.0mph /  16.1km/h 69% 0.00in /  0mm BKN
06:10 39.3 °F /  4.1 °C 29.3 °F /  -1.5 °C 30.05in /  1017.5hPa ENE 3.0mph /  4.8km/h 17.0mph /  27.4km/h 67% 0.00in /  0mm SCT
06:20 38.9 °F /  3.8 °C 29.6 °F /  -1.3 °C 30.06in /  1017.8hPa West 5.0mph /  8km/h 23.0mph /  37km/h 69% 0.00in /  0mm SCT
06:30 38.1 °F /  3.4 °C 27.0 °F /  -2.8 °C 30.09in /  1018.8hPa NNE 7.0mph /  11.3km/h 21.0mph /  33.8km/h 64% 0.00in /  0mm SCT
06:40 36.9 °F /  2.7 °C 25.1 °F /  -3.8 °C 30.10in /  1019.2hPa NNW 5.0mph /  8km/h 17.0mph /  27.4km/h 62% 0.00in /  0mm SCT
06:50 36.0 °F /  2.2 °C 23.1 °F /  -4.9 °C 30.11in /  1019.5hPa NNE 3.0mph /  4.8km/h 15.0mph /  24.1km/h 59% 0.00in /  0mm SCT
07:00 35.5 °F /  1.9 °C 21.8 °F /  -5.7 °C 30.12in /  1019.9hPa North 5.0mph /  8km/h 21.0mph /  33.8km/h 57% 0.00in /  0mm SCT
07:10 35.1 °F /  1.7 °C 21.4 °F /  -5.9 °C 30.12in /  1019.9hPa SW 3.0mph /  4.8km/h 10.0mph /  16.1km/h 57% 0.00in /  0mm SCT
07:19 34.9 °F /  1.6 °C 20.7 °F /  -6.3 °C 30.13in /  1020.2hPa North 6.0mph /  9.7km/h 16.0mph /  25.7km/h 56% 0.00in /  0mm SCT
07:30 34.4 °F /  1.3 °C 19.5 °F /  -6.9 °C 30.14in /  1020.5hPa ENE 2.0mph /  3.2km/h 20.0mph /  32.2km/h 54% 0.00in /  0mm SCT
07:40 34.2 °F /  1.2 °C 18.4 °F /  -7.6 °C 30.15in /  1020.9hPa NNE 6.0mph /  9.7km/h 18.0mph /  29km/h 52% 0.00in /  0mm SCT
07:50 34.0 °F /  1.1 °C 17.3 °F /  -8.2 °C 30.16in /  1021.2hPa NNE 7.0mph /  11.3km/h 16.0mph /  25.7km/h 50% 0.00in /  0mm SCT
07:59 34.1 °F /  1.2 °C 18.3 °F /  -7.6 °C 30.16in /  1021.2hPa NNE 2.0mph /  3.2km/h 21.0mph /  33.8km/h 52% 0.00in /  0mm SCT
08:10 33.9 °F /  1.1 °C 17.2 °F /  -8.2 °C 30.17in /  1021.6hPa North 1.0mph /  1.6km/h 12.0mph /  19.3km/h 50% 0.00in /  0mm FEW
08:20 34.0 °F /  1.1 °C 17.3 °F /  -8.2 °C 30.18in /  1021.9hPa NNW 5.0mph /  8km/h 17.0mph /  27.4km/h 50% 0.00in /  0mm FEW
08:30 34.1 °F /  1.2 °C 16.9 °F /  -8.4 °C 30.18in /  1021.9hPa NNW 5.0mph /  8km/h 20.0mph /  32.2km/h 49% 0.00in /  0mm FEW
08:40 34.3 °F /  1.3 °C 16.1 °F /  -8.8 °C 30.19in /  1022.2hPa NNE 6.0mph /  9.7km/h 22.0mph /  35.4km/h 47% 0.00in /  0mm FEW
08:50 34.4 °F /  1.3 °C 16.7 °F /  -8.5 °C 30.18in /  1021.9hPa WNW 6.0mph /  9.7km/h 23.0mph /  37km/h 48% 0.00in /  0mm FEW
08:59 34.7 °F /  1.5 °C 17.5 °F /  -8.1 °C 30.19in /  1022.2hPa NNW 6.0mph /  9.7km/h 20.0mph /  32.2km/h 49% 0.00in /  0mm FEW
09:10 35.4 °F /  1.9 °C 19.0 °F /  -7.2 °C 30.19in /  1022.2hPa NNW 2.0mph /  3.2km/h 12.0mph /  19.3km/h 51% 0.00in /  0mm FEW
09:20 35.5 °F /  1.9 °C 17.7 °F /  -7.9 °C 30.20in /  1022.6hPa NNW 5.0mph /  8km/h 14.0mph /  22.5km/h 48% 0.00in /  0mm FEW
09:30 36.0 °F /  2.2 °C 19.1 °F /  -7.2 °C 30.20in /  1022.6hPa NNW 5.0mph /  8km/h 14.0mph /  22.5km/h 50% 0.00in /  0mm FEW
09:40 35.5 °F /  1.9 °C 19.1 °F /  -7.2 °C 30.20in /  1022.6hPa NNE 5.0mph /  8km/h 15.0mph /  24.1km/h 51% 0.00in /  0mm FEW
09:50 34.9 °F /  1.6 °C 20.4 °F /  -6.4 °C 30.21in /  1022.9hPa NW 6.0mph /  9.7km/h 14.0mph /  22.5km/h 55% 0.00in /  0mm FEW
10:00 34.6 °F /  1.4 °C 21.7 °F /  -5.7 °C 30.21in /  1022.9hPa SSW 3.0mph /  4.8km/h 16.0mph /  25.7km/h 59% 0.00in /  0mm FEW
10:10 34.1 °F /  1.2 °C 20.4 °F /  -6.4 °C 30.22in /  1023.2hPa NNW 6.0mph /  9.7km/h 15.0mph /  24.1km/h 57% 0.00in /  0mm BKN
10:20 33.5 °F /  0.8 °C 15.9 °F /  -8.9 °C 30.23in /  1023.6hPa NNE 6.0mph /  9.7km/h 23.0mph /  37km/h 48% 0.00in /  0mm BKN
10:30 33.7 °F /  0.9 °C 17.0 °F /  -8.3 °C 30.23in /  1023.6hPa NNE 3.0mph /  4.8km/h 17.0mph /  27.4km/h 50% 0.00in /  0mm BKN
10:40 32.9 °F /  0.5 °C 14.4 °F /  -9.8 °C 30.23in /  1023.6hPa NNW 5.0mph /  8km/h 15.0mph /  24.1km/h 46% 0.00in /  0mm BKN
10:50 32.5 °F /  0.3 °C 14.5 °F /  -9.7 °C 30.23in /  1023.6hPa NNW 5.0mph /  8km/h 14.0mph /  22.5km/h 47% 0.00in /  0mm BKN
11:00 32.8 °F /  0.4 °C 14.8 °F /  -9.6 °C 30.22in /  1023.2hPa WSW 2.0mph /  3.2km/h 17.0mph /  27.4km/h 47% 0.00in /  0mm BKN
11:10 33.1 °F /  0.6 °C 15.5 °F /  -9.2 °C 30.23in /  1023.6hPa ESE 2.0mph /  3.2km/h 12.0mph /  19.3km/h 48% 0.00in /  0mm BKN
11:20 33.3 °F /  0.7 °C 15.2 °F /  -9.3 °C 30.23in /  1023.6hPa North 5.0mph /  8km/h 12.0mph /  19.3km/h 47% 0.00in /  0mm BKN
11:30 33.6 °F /  0.9 °C 15.9 °F /  -8.9 °C 30.24in /  1023.9hPa NNE 5.0mph /  8km/h 15.0mph /  24.1km/h 48% 0.00in /  0mm BKN
11:40 33.2 °F /  0.7 °C 16.1 °F /  -8.8 °C 30.24in /  1023.9hPa NNW 3.0mph /  4.8km/h 12.0mph /  19.3km/h 49% 0.00in /  0mm BKN
11:50 32.9 °F /  0.5 °C 14.8 °F /  -9.6 °C 30.25in /  1024.3hPa NW 8.0mph /  12.9km/h 16.0mph /  25.7km/h 47% 0.00in /  0mm BKN
12:00 32.4 °F /  0.2 °C 14.4 °F /  -9.8 °C 30.24in /  1023.9hPa East 3.0mph /  4.8km/h 21.0mph /  33.8km/h 47% 0.00in /  0mm BKN
12:10 32.6 °F /  0.3 °C 13.6 °F /  -10.2 °C 30.24in /  1023.9hPa NNW 5.0mph /  8km/h 18.0mph /  29km/h 45% 0.00in /  0mm SCT
12:20 33.3 °F /  0.7 °C 15.2 °F /  -9.3 °C 30.25in /  1024.3hPa SSW 6.0mph /  9.7km/h 13.0mph /  20.9km/h 47% 0.00in /  0mm SCT
12:29 34.2 °F /  1.2 °C 15.1 °F /  -9.4 °C 30.25in /  1024.3hPa NNW 8.0mph /  12.9km/h 14.0mph /  22.5km/h 45% 0.00in /  0mm SCT
12:40 33.1 °F /  0.6 °C 12.5 °F /  -10.8 °C 30.25in /  1024.3hPa NNW 7.0mph /  11.3km/h 17.0mph /  27.4km/h 42% 0.00in /  0mm SCT
12:50 33.1 °F /  0.6 °C 11.9 °F /  -11.2 °C 30.25in /  1024.3hPa NE 7.0mph /  11.3km/h 13.0mph /  20.9km/h 41% 0.00in /  0mm SCT
13:00 33.3 °F /  0.7 °C 11.5 °F /  -11.4 °C 30.26in /  1024.6hPa NW 5.0mph /  8km/h 13.0mph /  20.9km/h 40% 0.00in /  0mm SCT
13:10 33.6 °F /  0.9 °C 11.2 °F /  -11.6 °C 30.26in /  1024.6hPa NNW 8.0mph /  12.9km/h 16.0mph /  25.7km/h 39% 0.00in /  0mm FEW
13:20 34.0 °F /  1.1 °C 12.7 °F /  -10.7 °C 30.26in /  1024.6hPa NNW 5.0mph /  8km/h 13.0mph /  20.9km/h 41% 0.00in /  0mm FEW
13:30 33.5 °F /  0.8 °C 12.3 °F /  -10.9 °C 30.26in /  1024.6hPa NW 5.0mph /  8km/h 14.0mph /  22.5km/h 41% 0.00in /  0mm FEW
13:40 33.2 °F /  0.7 °C 12.0 °F /  -11.1 °C 30.26in /  1024.6hPa NNE 5.0mph /  8km/h 13.0mph /  20.9km/h 41% 0.00in /  0mm FEW
13:50 33.3 °F /  0.7 °C 12.1 °F /  -11.1 °C 30.27in /  1024.9hPa NW 5.0mph /  8km/h 14.0mph /  22.5km/h 41% 0.00in /  0mm FEW
13:59 33.8 °F /  1 °C 12.0 °F /  -11.1 °C 30.27in /  1024.9hPa NW 5.0mph /  8km/h 15.0mph /  24.1km/h 40% 0.00in /  0mm FEW
14:09 33.6 °F /  0.9 °C 12.4 °F /  -10.9 °C 30.27in /  1024.9hPa NNW 3.0mph /  4.8km/h 15.0mph /  24.1km/h 41% 0.00in /  0mm FEW
14:20 33.3 °F /  0.7 °C 12.7 °F /  -10.7 °C 30.28in /  1025.3hPa NW 3.0mph /  4.8km/h 13.0mph /  20.9km/h 42% 0.00in /  0mm FEW
14:30 32.9 °F /  0.5 °C 12.8 °F /  -10.7 °C 30.28in /  1025.3hPa WNW 3.0mph /  4.8km/h 15.0mph /  24.1km/h 43% 0.00in /  0mm FEW
14:40 33.1 °F /  0.6 °C 14.5 °F /  -9.7 °C 30.28in /  1025.3hPa North 3.0mph /  4.8km/h 12.0mph /  19.3km/h 46% 0.00in /  0mm FEW
14:50 32.8 °F /  0.4 °C 11.1 °F /  -11.6 °C 30.29in /  1025.6hPa NNW 7.0mph /  11.3km/h 15.0mph /  24.1km/h 40% 0.00in /  0mm FEW
15:00 32.3 °F /  0.2 °C 11.7 °F /  -11.3 °C 30.30in /  1026hPa North 2.0mph /  3.2km/h 16.0mph /  25.7km/h 42% 0.00in /  0mm FEW
15:10 32.0 °F /  0 °C 12.0 °F /  -11.1 °C 30.30in /  1026hPa NNW 8.0mph /  12.9km/h 21.0mph /  33.8km/h 43% 0.00in /  0mm FEW
15:20 31.5 °F /  -0.3 °C 9.9 °F /  -12.3 °C 30.30in /  1026hPa NW 6.0mph /  9.7km/h 23.0mph /  37km/h 40% 0.00in /  0mm FEW
15:30 31.6 °F /  -0.2 °C 10.0 °F /  -12.2 °C 30.31in /  1026.3hPa NW 6.0mph /  9.7km/h 17.0mph /  27.4km/h 40% 0.00in /  0mm FEW
15:40 31.7 °F /  -0.2 °C 10.7 °F /  -11.8 °C 30.32in /  1026.6hPa NNE 3.0mph /  4.8km/h 13.0mph /  20.9km/h 41% 0.00in /  0mm FEW
15:50 31.4 °F /  -0.3 °C 10.4 °F /  -12 °C 30.32in /  1026.6hPa NNE 7.0mph /  11.3km/h 20.0mph /  32.2km/h 41% 0.00in /  0mm FEW
15:59 30.8 °F /  -0.7 °C 9.8 °F /  -12.3 °C 30.33in /  1027hPa WNW 3.0mph /  4.8km/h 15.0mph /  24.1km/h 41% 0.00in /  0mm FEW
16:10 30.6 °F /  -0.8 °C 10.2 °F /  -12.1 °C 30.34in /  1027.3hPa NNE 3.0mph /  4.8km/h 17.0mph /  27.4km/h 42% 0.00in /  0mm FEW
16:20 29.9 °F /  -1.2 °C 7.9 °F /  -13.4 °C 30.35in /  1027.7hPa NNW 5.0mph /  8km/h 20.0mph /  32.2km/h 39% 0.00in /  0mm FEW
16:29 29.2 °F /  -1.6 °C 8.4 °F /  -13.1 °C 30.36in /  1028hPa North 9.0mph /  14.5km/h 18.0mph /  29km/h 41% 0.00in /  0mm FEW
16:40 28.8 °F /  -1.8 °C 8.6 °F /  -13 °C 30.36in /  1028hPa Calm   12.0mph /  19.3km/h 42% 0.00in /  0mm FEW
16:49 28.6 °F /  -1.9 °C 8.9 °F /  -12.8 °C 30.37in /  1028.3hPa NNE 8.0mph /  12.9km/h 14.0mph /  22.5km/h 43% 0.00in /  0mm FEW
17:00 28.2 °F /  -2.1 °C 7.5 °F /  -13.6 °C 30.38in /  1028.7hPa NNE 5.0mph /  8km/h 12.0mph /  19.3km/h 41% 0.00in /  0mm FEW
17:10 28.0 °F /  -2.2 °C 8.4 °F /  -13.1 °C 30.39in /  1029hPa NNW 5.0mph /  8km/h 15.0mph /  24.1km/h 43% 0.00in /  0mm CLR
17:20 27.8 °F /  -2.3 °C 8.2 °F /  -13.2 °C 30.39in /  1029hPa NNE 3.0mph /  4.8km/h 12.0mph /  19.3km/h 43% 0.00in /  0mm CLR
17:29 27.7 °F /  -2.4 °C 9.1 °F /  -12.7 °C 30.40in /  1029.3hPa NNE 2.0mph /  3.2km/h 13.0mph /  20.9km/h 45% 0.00in /  0mm CLR
17:40 27.5 °F /  -2.5 °C 8.9 °F /  -12.8 °C 30.41in /  1029.7hPa NNW 6.0mph /  9.7km/h 15.0mph /  24.1km/h 45% 0.00in /  0mm CLR
17:50 27.3 °F /  -2.6 °C 9.7 °F /  -12.4 °C 30.42in /  1030hPa NNE 1.0mph /  1.6km/h 8.0mph /  12.9km/h 47% 0.00in /  0mm CLR
18:00 27.1 °F /  -2.7 °C 10.0 °F /  -12.2 °C 30.42in /  1030hPa NE 3.0mph /  4.8km/h 12.0mph /  19.3km/h 48% 0.00in /  0mm CLR
18:10 27.0 °F /  -2.8 °C 9.9 °F /  -12.3 °C 30.43in /  1030.4hPa NNE 2.0mph /  3.2km/h 10.0mph /  16.1km/h 48% 0.00in /  0mm CLR
18:20 26.7 °F /  -2.9 °C 8.7 °F /  -12.9 °C 30.44in /  1030.7hPa North 5.0mph /  8km/h 16.0mph /  25.7km/h 46% 0.00in /  0mm CLR
18:29 26.4 °F /  -3.1 °C 8.8 °F /  -12.9 °C 30.44in /  1030.7hPa NE 3.0mph /  4.8km/h 12.0mph /  19.3km/h 47% 0.00in /  0mm CLR
18:40 26.1 °F /  -3.3 °C 8.6 °F /  -13 °C 30.45in /  1031hPa North 3.0mph /  4.8km/h 13.0mph /  20.9km/h 47% 0.00in /  0mm CLR
18:50 25.9 °F /  -3.4 °C 8.9 °F /  -12.8 °C 30.46in /  1031.4hPa ENE 3.0mph /  4.8km/h 10.0mph /  16.1km/h 48% 0.00in /  0mm CLR
18:59 25.7 °F /  -3.5 °C 9.2 °F /  -12.7 °C 30.46in /  1031.4hPa ENE 2.0mph /  3.2km/h 8.0mph /  12.9km/h 49% 0.00in /  0mm CLR
19:10 25.4 °F /  -3.7 °C 8.4 °F /  -13.1 °C 30.47in /  1031.7hPa NE 2.0mph /  3.2km/h 10.0mph /  16.1km/h 48% 0.00in /  0mm CLR
19:20 25.3 °F /  -3.7 °C 9.2 °F /  -12.7 °C 30.48in /  1032.1hPa NE 2.0mph /  3.2km/h 9.0mph /  14.5km/h 50% 0.00in /  0mm CLR
19:30 25.1 °F /  -3.8 °C 8.6 °F /  -13 °C 30.48in /  1032.1hPa NE 3.0mph /  4.8km/h 13.0mph /  20.9km/h 49% 0.00in /  0mm CLR
19:39 25.0 °F /  -3.9 °C 9.0 °F /  -12.8 °C 30.48in /  1032.1hPa NNW 5.0mph /  8km/h 12.0mph /  19.3km/h 50% 0.00in /  0mm CLR
19:50 24.7 °F /  -4.1 °C 8.7 °F /  -12.9 °C 30.48in /  1032.1hPa NNW 5.0mph /  8km/h 12.0mph /  19.3km/h 50% 0.00in /  0mm CLR
19:59 24.7 °F /  -4.1 °C 8.2 °F /  -13.2 °C 30.48in /  1032.1hPa NNW 3.0mph /  4.8km/h 15.0mph /  24.1km/h 49% 0.00in /  0mm CLR
20:09 24.6 °F /  -4.1 °C 9.0 °F /  -12.8 °C 30.49in /  1032.4hPa North 5.0mph /  8km/h 12.0mph /  19.3km/h 51% 0.00in /  0mm CLR
20:20 24.5 °F /  -4.2 °C 8.9 °F /  -12.8 °C 30.49in /  1032.4hPa NW 2.0mph /  3.2km/h 12.0mph /  19.3km/h 51% 0.00in /  0mm CLR
20:30 24.3 °F /  -4.3 °C 9.6 °F /  -12.4 °C 30.49in /  1032.4hPa NW 1.0mph /  1.6km/h 6.0mph /  9.7km/h 53% 0.00in /  0mm CLR
20:39 24.0 °F /  -4.4 °C 8.9 °F /  -12.8 °C 30.50in /  1032.7hPa NNE 2.0mph /  3.2km/h 9.0mph /  14.5km/h 52% 0.00in /  0mm CLR
20:49 23.9 °F /  -4.5 °C 9.2 °F /  -12.7 °C 30.50in /  1032.7hPa NNE 1.0mph /  1.6km/h 8.0mph /  12.9km/h 53% 0.00in /  0mm CLR
21:00 23.7 °F /  -4.6 °C 9.0 °F /  -12.8 °C 30.50in /  1032.7hPa North 2.0mph /  3.2km/h 12.0mph /  19.3km/h 53% 0.00in /  0mm CLR
21:10 23.7 °F /  -4.6 °C 10.3 °F /  -12.1 °C 30.50in /  1032.7hPa Calm   6.0mph /  9.7km/h 56% 0.00in /  0mm CLR
21:20 23.8 °F /  -4.6 °C 10.0 °F /  -12.2 °C 30.51in /  1033.1hPa NNE 1.0mph /  1.6km/h 10.0mph /  16.1km/h 55% 0.00in /  0mm CLR
21:30 23.6 °F /  -4.7 °C 9.4 °F /  -12.6 °C 30.51in /  1033.1hPa North 1.0mph /  1.6km/h 8.0mph /  12.9km/h 54% 0.00in /  0mm CLR
21:40 23.6 °F /  -4.7 °C 9.8 °F /  -12.3 °C 30.51in /  1033.1hPa NNW 2.0mph /  3.2km/h 8.0mph /  12.9km/h 55% 0.00in /  0mm CLR
21:50 23.4 °F /  -4.8 °C 10.0 °F /  -12.2 °C 30.51in /  1033.1hPa NNE 2.0mph /  3.2km/h 6.0mph /  9.7km/h 56% 0.00in /  0mm CLR
22:00 23.4 °F /  -4.8 °C 10.0 °F /  -12.2 °C 30.51in /  1033.1hPa NNW 1.0mph /  1.6km/h 5.0mph /  8km/h 56% 0.00in /  0mm CLR
22:09 23.4 °F /  -4.8 °C 10.4 °F /  -12 °C 30.51in /  1033.1hPa Calm   10.0mph /  16.1km/h 57% 0.00in /  0mm CLR
22:20 23.5 °F /  -4.7 °C 10.1 °F /  -12.2 °C 30.51in /  1033.1hPa North 1.0mph /  1.6km/h 13.0mph /  20.9km/h 56% 0.00in /  0mm CLR
22:30 23.6 °F /  -4.7 °C 10.2 °F /  -12.1 °C 30.52in /  1033.4hPa North 5.0mph /  8km/h 13.0mph /  20.9km/h 56% 0.00in /  0mm CLR
22:40 23.6 °F /  -4.7 °C 10.2 °F /  -12.1 °C 30.51in /  1033.1hPa North 1.0mph /  1.6km/h 8.0mph /  12.9km/h 56% 0.00in /  0mm CLR
22:50 23.6 °F /  -4.7 °C 10.6 °F /  -11.9 °C 30.51in /  1033.1hPa NNW 1.0mph /  1.6km/h 8.0mph /  12.9km/h 57% 0.00in /  0mm CLR
23:00 23.6 °F /  -4.7 °C 11.0 °F /  -11.7 °C 30.51in /  1033.1hPa NNE 2.0mph /  3.2km/h 9.0mph /  14.5km/h 58% 0.00in /  0mm CLR
23:09 23.5 °F /  -4.7 °C 10.5 °F /  -11.9 °C 30.51in /  1033.1hPa NE 1.0mph /  1.6km/h 7.0mph /  11.3km/h 57% 0.00in /  0mm CLR
23:20 23.3 °F /  -4.8 °C 10.7 °F /  -11.8 °C 30.51in /  1033.1hPa NNE 1.0mph /  1.6km/h 7.0mph /  11.3km/h 58% 0.00in /  0mm CLR
23:30 23.2 °F /  -4.9 °C 11.0 °F /  -11.7 °C 30.51in /  1033.1hPa Calm   4.0mph /  6.4km/h 59% 0.00in /  0mm CLR
23:40 23.2 °F /  -4.9 °C 11.4 °F /  -11.4 °C 30.51in /  1033.1hPa Calm   6.0mph /  9.7km/h 60% 0.00in /  0mm CLR
23:50 23.2 °F /  -4.9 °C 11.4 °F /  -11.4 °C 30.52in /  1033.4hPa Calm   6.0mph /  9.7km/h 60% 0.00in /  0mm CLR
TarryTown NY Weather
Compliments of Weather Underground - 1.75 mb